Time,TemperatureF,DewpointF,PressureIn,WindDirection,WindDirectionDegrees,WindSpeedMPH,WindSpeedGustMPH,Humidity,HourlyPrecipIn,Conditions,Clouds,dailyrainin,SoftwareType,DateUTC
2013-01-06 00:00:00,31.1,27.4,30.27,SSW,204,0.0,0.0,86,0.00,,---,0.00,VWS V14.00,2013-01-06 06:00:00,
2013-01-06 00:05:00,31.2,27.5,30.27,SSW,204,0.0,0.0,86,0.00,,---,0.00,VWS V14.00,2013-01-06 06:05:00,
2013-01-06 00:06:00,31.2,27.5,30.27,SSW,204,0.0,0.0,86,0.00,,---,0.00,VWS V14.00,2013-01-06 06:06:00,
2013-01-06 00:10:00,31.2,27.5,30.27,SSW,204,0.0,0.0,86,0.00,,---,0.00,VWS V14.00,2013-01-06 06:10:00,
2013-01-06 00:11:00,31.2,27.5,30.27,SSW,204,0.0,0.0,86,0.00,,---,0.00,VWS V14.00,2013-01-06 06:11:00,
2013-01-06 00:15:00,31.2,27.5,30.28,SSW,204,0.0,0.0,86,0.00,,---,0.00,VWS V14.00,2013-01-06 06:15:00,
2013-01-06 00:20:00,31.2,27.5,30.28,SSW,204,0.0,0.0,86,0.00,,---,0.00,VWS V14.00,2013-01-06 06:20:00,
2013-01-06 00:21:00,31.2,27.5,30.28,SSW,204,0.0,0.0,86,0.00,,---,0.00,VWS V14.00,2013-01-06 06:21:00,
2013-01-06 00:25:00,31.3,27.6,30.28,SSW,204,0.0,0.0,86,0.00,,---,0.00,VWS V14.00,2013-01-06 06:25:00,
2013-01-06 00:26:00,31.3,27.6,30.28,SSW,204,0.0,0.0,86,0.00,,---,0.00,VWS V14.00,2013-01-06 06:26:00,
2013-01-06 00:30:00,31.3,27.6,30.28,SSW,204,0.0,0.0,86,0.00,,---,0.00,VWS V14.00,2013-01-06 06:30:00,
2013-01-06 00:31:00,31.3,27.6,30.28,SSW,204,0.0,0.0,86,0.00,,---,0.00,VWS V14.00,2013-01-06 06:31:00,
2013-01-06 00:35:00,31.4,27.7,30.28,SSW,204,2.0,2.0,86,0.00,,---,0.00,VWS V14.00,2013-01-06 06:35:00,
2013-01-06 00:36:00,31.4,27.4,30.28,SSW,204,2.0,2.0,85,0.00,,---,0.00,VWS V14.00,2013-01-06 06:36:00,
2013-01-06 00:40:00,31.4,27.4,30.28,SSW,204,3.0,3.0,85,0.00,,---,0.00,VWS V14.00,2013-01-06 06:40:00,
2013-01-06 00:41:00,31.5,27.5,30.28,SSW,204,0.0,3.0,85,0.00,,---,0.00,VWS V14.00,2013-01-06 06:41:00,
2013-01-06 00:45:00,31.5,27.5,30.28,SSW,204,0.0,3.0,85,0.00,,---,0.00,VWS V14.00,2013-01-06 06:45:00,
2013-01-06 00:46:00,31.5,27.2,30.28,SSW,204,0.0,0.0,84,0.00,,---,0.00,VWS V14.00,2013-01-06 06:46:00,
2013-01-06 00:50:00,31.4,27.1,30.29,SSW,204,0.0,0.0,84,0.00,,---,0.00,VWS V14.00,2013-01-06 06:50:00,
2013-01-06 00:55:00,31.4,27.1,30.28,SSW,205,4.0,4.0,84,0.00,,---,0.00,VWS V14.00,2013-01-06 06:55:00,
2013-01-06 01:00:00,31.8,27.2,30.29,SSW,205,2.0,3.0,83,0.00,,---,0.00,VWS V14.00,2013-01-06 07:00:00,
2013-01-06 01:05:00,32.0,27.1,30.29,SSW,206,1.0,5.0,82,0.00,,---,0.00,VWS V14.00,2013-01-06 07:05:00,
2013-01-06 01:10:00,32.2,27.0,30.29,SSW,206,0.0,3.0,81,0.00,,---,0.00,VWS V14.00,2013-01-06 07:10:00,
2013-01-06 01:15:00,32.4,26.9,30.29,West,275,1.0,5.0,80,0.00,,---,0.00,VWS V14.00,2013-01-06 07:15:00,
2013-01-06 01:20:00,32.6,26.8,30.29,West,276,5.0,5.0,79,0.00,,---,0.00,VWS V14.00,2013-01-06 07:20:00,
2013-01-06 01:25:00,32.6,26.5,30.29,West,276,1.0,2.0,78,0.00,,---,0.00,VWS V14.00,2013-01-06 07:25:00,
2013-01-06 01:30:00,32.6,26.2,30.29,West,276,0.0,3.0,77,0.00,,---,0.00,VWS V14.00,2013-01-06 07:30:00,
2013-01-06 01:31:00,32.6,26.2,30.30,West,276,0.0,0.0,77,0.00,,---,0.00,VWS V14.00,2013-01-06 07:31:00,
2013-01-06 01:35:00,32.5,26.1,30.30,West,276,0.0,0.0,77,0.00,,---,0.00,VWS V14.00,2013-01-06 07:35:00,
2013-01-06 01:40:00,32.4,25.7,30.30,West,276,2.0,3.0,76,0.00,,---,0.00,VWS V14.00,2013-01-06 07:40:00,
2013-01-06 01:41:00,32.4,25.7,30.30,West,276,0.0,2.0,76,0.00,,---,0.00,VWS V14.00,2013-01-06 07:41:00,
2013-01-06 01:45:00,32.4,25.7,30.30,West,276,0.0,2.0,76,0.00,,---,0.00,VWS V14.00,2013-01-06 07:45:00,
2013-01-06 01:46:00,32.3,25.6,30.30,West,276,0.0,0.0,76,0.00,,---,0.00,VWS V14.00,2013-01-06 07:46:00,
2013-01-06 01:50:00,32.3,25.6,30.31,West,276,0.0,0.0,76,0.00,,---,0.00,VWS V14.00,2013-01-06 07:50:00,
2013-01-06 01:51:00,32.3,25.6,30.31,West,276,0.0,0.0,76,0.00,,---,0.00,VWS V14.00,2013-01-06 07:51:00,
2013-01-06 01:55:00,32.2,25.5,30.31,West,276,2.0,4.0,76,0.00,,---,0.00,VWS V14.00,2013-01-06 07:55:00,
2013-01-06 01:56:00,32.2,25.5,30.31,West,276,2.0,3.0,76,0.00,,---,0.00,VWS V14.00,2013-01-06 07:56:00,
2013-01-06 02:00:00,32.2,25.5,30.31,West,276,0.0,3.0,76,0.00,,---,0.00,VWS V14.00,2013-01-06 08:00:00,
2013-01-06 02:01:00,32.2,25.5,30.31,West,276,3.0,3.0,76,0.00,,---,0.00,VWS V14.00,2013-01-06 08:01:00,
2013-01-06 02:05:00,32.2,25.5,30.31,West,276,0.0,4.0,76,0.00,,---,0.00,VWS V14.00,2013-01-06 08:05:00,
2013-01-06 02:06:00,32.1,25.4,30.31,West,276,0.0,0.0,76,0.00,,---,0.00,VWS V14.00,2013-01-06 08:06:00,
2013-01-06 02:10:00,32.1,25.4,30.31,West,276,0.0,0.0,76,0.00,,---,0.00,VWS V14.00,2013-01-06 08:10:00,
2013-01-06 02:11:00,32.1,25.1,30.31,West,276,0.0,0.0,75,0.00,,---,0.00,VWS V14.00,2013-01-06 08:11:00,
2013-01-06 02:15:00,32.0,25.0,30.31,West,276,1.0,3.0,75,0.00,,---,0.00,VWS V14.00,2013-01-06 08:15:00,
2013-01-06 02:16:00,31.9,24.9,30.31,West,276,2.0,3.0,75,0.00,,---,0.00,VWS V14.00,2013-01-06 08:16:00,
2013-01-06 02:20:00,31.8,24.8,30.31,West,276,3.0,4.0,75,0.00,,---,0.00,VWS V14.00,2013-01-06 08:20:00,
2013-01-06 02:21:00,31.7,24.7,30.31,West,276,3.0,4.0,75,0.00,,---,0.00,VWS V14.00,2013-01-06 08:21:00,
2013-01-06 02:25:00,31.6,24.6,30.31,West,274,4.0,6.0,75,0.00,,---,0.00,VWS V14.00,2013-01-06 08:25:00,
2013-01-06 02:26:00,31.5,24.5,30.31,West,274,1.0,4.0,75,0.00,,---,0.00,VWS V14.00,2013-01-06 08:26:00,
2013-01-06 02:30:00,31.4,24.4,30.31,West,274,3.0,4.0,75,0.00,,---,0.00,VWS V14.00,2013-01-06 08:30:00,
2013-01-06 02:31:00,31.3,24.6,30.31,West,273,3.0,4.0,76,0.00,,---,0.00,VWS V14.00,2013-01-06 08:31:00,
2013-01-06 02:35:00,31.1,24.4,30.31,West,273,2.0,4.0,76,0.00,,---,0.00,VWS V14.00,2013-01-06 08:35:00,
2013-01-06 02:36:00,31.1,24.4,30.32,West,273,2.0,3.0,76,0.00,,---,0.00,VWS V14.00,2013-01-06 08:36:00,
2013-01-06 02:40:00,31.0,24.3,30.32,West,273,0.0,3.0,76,0.00,,---,0.00,VWS V14.00,2013-01-06 08:40:00,
2013-01-06 02:41:00,30.9,24.2,30.31,West,273,1.0,2.0,76,0.00,,---,0.00,VWS V14.00,2013-01-06 08:41:00,
2013-01-06 02:45:00,30.8,24.5,30.32,West,273,0.0,2.0,77,0.00,,---,0.00,VWS V14.00,2013-01-06 08:45:00,
2013-01-06 02:46:00,30.7,24.4,30.32,West,273,0.0,0.0,77,0.00,,---,0.00,VWS V14.00,2013-01-06 08:46:00,
2013-01-06 02:50:00,30.6,24.3,30.32,West,273,3.0,4.0,77,0.00,,---,0.00,VWS V14.00,2013-01-06 08:50:00,
2013-01-06 02:51:00,30.5,24.2,30.32,West,273,2.0,3.0,77,0.00,,---,0.00,VWS V14.00,2013-01-06 08:51:00,
2013-01-06 02:55:00,30.3,24.0,30.32,West,273,4.0,4.0,77,0.00,,---,0.00,VWS V14.00,2013-01-06 08:55:00,
2013-01-06 02:56:00,30.3,24.0,30.32,West,273,4.0,4.0,77,0.00,,---,0.00,VWS V14.00,2013-01-06 08:56:00,
2013-01-06 03:00:00,30.1,23.8,30.32,West,273,3.0,4.0,77,0.00,,---,0.00,VWS V14.00,2013-01-06 09:00:00,
2013-01-06 03:01:00,30.0,23.7,30.32,West,273,2.0,3.0,77,0.00,,---,0.00,VWS V14.00,2013-01-06 09:01:00,
2013-01-06 03:05:00,29.8,23.8,30.32,West,273,4.0,4.0,78,0.00,,---,0.00,VWS V14.00,2013-01-06 09:05:00,
2013-01-06 03:06:00,29.7,23.7,30.32,West,273,2.0,4.0,78,0.00,,---,0.00,VWS V14.00,2013-01-06 09:06:00,
2013-01-06 03:10:00,29.6,23.6,30.32,West,273,2.0,4.0,78,0.00,,---,0.00,VWS V14.00,2013-01-06 09:10:00,
2013-01-06 03:11:00,29.5,23.5,30.32,West,273,3.0,4.0,78,0.00,,---,0.00,VWS V14.00,2013-01-06 09:11:00,
2013-01-06 03:15:00,29.4,23.4,30.32,West,273,2.0,5.0,78,0.00,,---,0.00,VWS V14.00,2013-01-06 09:15:00,
2013-01-06 03:16:00,29.3,23.6,30.32,West,273,1.0,3.0,79,0.00,,---,0.00,VWS V14.00,2013-01-06 09:16:00,
2013-01-06 03:20:00,29.2,23.5,30.32,West,273,1.0,4.0,79,0.00,,---,0.00,VWS V14.00,2013-01-06 09:20:00,
2013-01-06 03:21:00,29.1,23.4,30.32,West,273,1.0,3.0,79,0.00,,---,0.00,VWS V14.00,2013-01-06 09:21:00,
2013-01-06 03:25:00,29.0,23.3,30.32,West,273,1.0,3.0,79,0.00,,---,0.00,VWS V14.00,2013-01-06 09:25:00,
2013-01-06 03:30:00,28.8,23.1,30.33,West,273,0.0,1.0,79,0.00,,---,0.00,VWS V14.00,2013-01-06 09:30:00,
2013-01-06 03:35:00,28.7,23.0,30.32,West,273,0.0,0.0,79,0.00,,---,0.00,VWS V14.00,2013-01-06 09:35:00,
2013-01-06 03:40:00,28.5,23.1,30.32,West,273,0.0,0.0,80,0.00,,---,0.00,VWS V14.00,2013-01-06 09:40:00,
2013-01-06 03:45:00,28.4,23.0,30.32,West,273,0.0,0.0,80,0.00,,---,0.00,VWS V14.00,2013-01-06 09:45:00,
2013-01-06 03:50:00,28.3,22.9,30.32,West,273,0.0,0.0,80,0.00,,---,0.00,VWS V14.00,2013-01-06 09:50:00,
2013-01-06 03:55:00,28.2,22.8,30.32,West,273,0.0,0.0,80,0.00,,---,0.00,VWS V14.00,2013-01-06 09:55:00,
2013-01-06 03:56:00,28.2,22.8,30.32,West,273,0.0,0.0,80,0.00,,---,0.00,VWS V14.00,2013-01-06 09:56:00,
2013-01-06 04:00:00,28.1,23.0,30.32,West,273,0.0,0.0,81,0.00,,---,0.00,VWS V14.00,2013-01-06 10:00:00,
2013-01-06 04:01:00,28.1,23.0,30.32,West,273,0.0,0.0,81,0.00,,---,0.00,VWS V14.00,2013-01-06 10:01:00,
2013-01-06 04:05:00,28.0,22.6,30.32,West,273,0.0,0.0,80,0.00,,---,0.00,VWS V14.00,2013-01-06 10:05:00,
2013-01-06 04:06:00,27.9,22.5,30.32,West,273,0.0,0.0,80,0.00,,---,0.00,VWS V14.00,2013-01-06 10:06:00,
2013-01-06 04:10:00,27.8,22.4,30.32,West,273,0.0,0.0,80,0.00,,---,0.00,VWS V14.00,2013-01-06 10:10:00,
2013-01-06 04:11:00,27.8,22.7,30.32,West,273,0.0,0.0,81,0.00,,---,0.00,VWS V14.00,2013-01-06 10:11:00,
2013-01-06 04:15:00,27.7,22.6,30.32,West,273,0.0,0.0,81,0.00,,---,0.00,VWS V14.00,2013-01-06 10:15:00,
2013-01-06 04:16:00,27.6,22.5,30.32,West,273,0.0,0.0,81,0.00,,---,0.00,VWS V14.00,2013-01-06 10:16:00,
2013-01-06 04:20:00,27.5,22.5,30.32,West,273,0.0,0.0,81,0.00,,---,0.00,VWS V14.00,2013-01-06 10:20:00,
2013-01-06 04:21:00,27.5,22.5,30.32,West,273,0.0,0.0,81,0.00,,---,0.00,VWS V14.00,2013-01-06 10:21:00,
2013-01-06 04:25:00,27.5,22.5,30.32,West,273,0.0,3.0,81,0.00,,---,0.00,VWS V14.00,2013-01-06 10:25:00,
2013-01-06 04:26:00,27.5,22.5,30.32,West,273,1.0,3.0,81,0.00,,---,0.00,VWS V14.00,2013-01-06 10:26:00,
2013-01-06 04:30:00,27.5,22.5,30.32,West,273,2.0,3.0,81,0.00,,---,0.00,VWS V14.00,2013-01-06 10:30:00,
2013-01-06 04:31:00,27.6,22.8,30.32,West,273,3.0,4.0,82,0.00,,---,0.00,VWS V14.00,2013-01-06 10:31:00,
2013-01-06 04:35:00,28.0,23.2,30.32,West,274,1.0,6.0,82,0.00,,---,0.00,VWS V14.00,2013-01-06 10:35:00,
2013-01-06 04:36:00,28.2,23.4,30.32,West,274,0.0,3.0,82,0.00,,---,0.00,VWS V14.00,2013-01-06 10:36:00,
2013-01-06 04:40:00,28.4,23.3,30.32,West,274,2.0,4.0,81,0.00,,---,0.00,VWS V14.00,2013-01-06 10:40:00,
2013-01-06 04:41:00,28.6,23.5,30.32,West,274,2.0,2.0,81,0.00,,---,0.00,VWS V14.00,2013-01-06 10:41:00,
2013-01-06 04:45:00,28.8,23.7,30.32,West,274,0.0,4.0,81,0.00,,---,0.00,VWS V14.00,2013-01-06 10:45:00,
2013-01-06 04:46:00,28.9,23.5,30.32,West,274,0.0,0.0,80,0.00,,---,0.00,VWS V14.00,2013-01-06 10:46:00,
2013-01-06 04:50:00,29.1,23.7,30.32,West,274,0.0,3.0,80,0.00,,---,0.00,VWS V14.00,2013-01-06 10:50:00,
2013-01-06 04:51:00,29.1,23.7,30.32,West,274,0.0,0.0,80,0.00,,---,0.00,VWS V14.00,2013-01-06 10:51:00,
2013-01-06 04:55:00,29.2,23.5,30.32,West,274,0.0,0.0,79,0.00,,---,0.00,VWS V14.00,2013-01-06 10:55:00,
2013-01-06 04:56:00,29.3,23.6,30.32,West,274,0.0,0.0,79,0.00,,---,0.00,VWS V14.00,2013-01-06 10:56:00,
2013-01-06 05:00:00,29.3,23.6,30.32,West,274,0.0,0.0,79,0.00,,---,0.00,VWS V14.00,2013-01-06 11:00:00,
2013-01-06 05:01:00,29.3,23.6,30.32,West,274,0.0,0.0,79,0.00,,---,0.00,VWS V14.00,2013-01-06 11:01:00,
2013-01-06 05:05:00,29.4,23.7,30.33,West,274,0.0,0.0,79,0.00,,---,0.00,VWS V14.00,2013-01-06 11:05:00,
2013-01-06 05:06:00,29.4,23.4,30.33,West,274,0.0,3.0,78,0.00,,---,0.00,VWS V14.00,2013-01-06 11:06:00,
2013-01-06 05:10:00,29.4,23.4,30.33,West,274,3.0,4.0,78,0.00,,---,0.00,VWS V14.00,2013-01-06 11:10:00,
2013-01-06 05:11:00,29.4,23.4,30.33,West,274,0.0,3.0,78,0.00,,---,0.00,VWS V14.00,2013-01-06 11:11:00,
2013-01-06 05:15:00,29.4,23.4,30.33,West,274,0.0,3.0,78,0.00,,---,0.00,VWS V14.00,2013-01-06 11:15:00,
2013-01-06 05:16:00,29.3,23.3,30.33,West,274,0.0,0.0,78,0.00,,---,0.00,VWS V14.00,2013-01-06 11:16:00,
2013-01-06 05:20:00,29.3,23.3,30.33,West,274,0.0,0.0,78,0.00,,---,0.00,VWS V14.00,2013-01-06 11:20:00,
2013-01-06 05:21:00,29.3,23.3,30.33,West,274,0.0,0.0,78,0.00,,---,0.00,VWS V14.00,2013-01-06 11:21:00,
2013-01-06 05:25:00,29.3,23.3,30.33,West,274,0.0,0.0,78,0.00,,---,0.00,VWS V14.00,2013-01-06 11:25:00,
2013-01-06 05:26:00,29.2,23.2,30.33,West,274,0.0,0.0,78,0.00,,---,0.00,VWS V14.00,2013-01-06 11:26:00,
2013-01-06 05:30:00,29.2,23.2,30.33,West,274,0.0,0.0,78,0.00,,---,0.00,VWS V14.00,2013-01-06 11:30:00,
2013-01-06 05:31:00,29.2,23.2,30.33,West,274,0.0,0.0,78,0.00,,---,0.00,VWS V14.00,2013-01-06 11:31:00,
2013-01-06 05:35:00,29.1,23.1,30.33,West,274,0.0,0.0,78,0.00,,---,0.00,VWS V14.00,2013-01-06 11:35:00,
2013-01-06 05:40:00,29.0,23.0,30.34,West,274,0.0,0.0,78,0.00,,---,0.00,VWS V14.00,2013-01-06 11:40:00,
2013-01-06 05:45:00,29.0,23.3,30.34,West,274,0.0,0.0,79,0.00,,---,0.00,VWS V14.00,2013-01-06 11:45:00,
2013-01-06 05:50:00,29.1,23.4,30.34,West,274,0.0,3.0,79,0.00,,---,0.00,VWS V14.00,2013-01-06 11:50:00,
2013-01-06 05:55:00,29.1,23.1,30.34,West,274,0.0,2.0,78,0.00,,---,0.00,VWS V14.00,2013-01-06 11:55:00,
2013-01-06 06:00:00,29.2,23.2,30.34,West,274,0.0,0.0,78,0.00,,---,0.00,VWS V14.00,2013-01-06 12:00:00,
2013-01-06 06:05:00,29.2,23.2,30.34,West,274,0.0,1.0,78,0.00,,---,0.00,VWS V14.00,2013-01-06 12:05:00,
2013-01-06 06:10:00,29.2,23.2,30.34,West,274,0.0,0.0,78,0.00,,---,0.00,VWS V14.00,2013-01-06 12:10:00,
2013-01-06 06:15:00,29.3,23.3,30.35,West,274,0.0,0.0,78,0.00,,---,0.00,VWS V14.00,2013-01-06 12:15:00,
2013-01-06 06:20:00,29.3,23.3,30.35,West,274,0.0,3.0,78,0.00,,---,0.00,VWS V14.00,2013-01-06 12:20:00,
2013-01-06 06:25:00,29.4,23.1,30.35,West,274,5.0,5.0,77,0.00,,---,0.00,VWS V14.00,2013-01-06 12:25:00,
2013-01-06 06:30:00,29.5,23.2,30.35,West,274,2.0,4.0,77,0.00,,---,0.00,VWS V14.00,2013-01-06 12:30:00,
2013-01-06 06:35:00,29.5,23.2,30.35,West,274,0.0,0.0,77,0.00,,---,0.00,VWS V14.00,2013-01-06 12:35:00,
2013-01-06 06:40:00,29.6,23.3,30.35,West,274,0.0,0.0,77,0.00,,---,0.00,VWS V14.00,2013-01-06 12:40:00,
2013-01-06 06:45:00,29.2,22.3,30.36,West,274,0.0,0.0,75,0.00,,---,0.00,VWS V14.00,2013-01-06 12:45:00,
2013-01-06 06:50:00,28.9,22.3,30.36,West,274,0.0,0.0,76,0.00,,---,0.00,VWS V14.00,2013-01-06 12:50:00,
2013-01-06 06:55:00,28.8,22.5,30.36,West,274,0.0,0.0,77,0.00,,---,0.00,VWS V14.00,2013-01-06 12:55:00,
2013-01-06 07:00:00,28.8,22.5,30.36,West,274,0.0,0.0,77,0.00,,---,0.00,VWS V14.00,2013-01-06 13:00:00,
2013-01-06 07:05:00,28.8,22.5,30.36,West,274,0.0,0.0,77,0.00,,---,0.00,VWS V14.00,2013-01-06 13:05:00,
2013-01-06 07:10:00,28.8,22.5,30.36,West,274,3.0,3.0,77,0.00,,---,0.00,VWS V14.00,2013-01-06 13:10:00,
2013-01-06 07:15:00,28.8,22.5,30.36,West,274,0.0,0.0,77,0.00,,---,0.00,VWS V14.00,2013-01-06 13:15:00,
2013-01-06 07:20:00,28.8,22.5,30.37,West,274,0.0,0.0,77,0.00,,---,0.00,VWS V14.00,2013-01-06 13:20:00,
2013-01-06 07:25:00,28.7,22.4,30.37,West,274,0.0,0.0,77,0.00,,---,0.00,VWS V14.00,2013-01-06 13:25:00,
2013-01-06 07:30:00,28.6,22.3,30.37,West,274,0.0,0.0,77,0.00,,---,0.00,VWS V14.00,2013-01-06 13:30:00,
2013-01-06 07:35:00,28.5,22.2,30.37,West,274,0.0,0.0,77,0.00,,---,0.00,VWS V14.00,2013-01-06 13:35:00,
2013-01-06 07:40:00,28.5,22.5,30.37,West,274,0.0,0.0,78,0.00,,---,0.00,VWS V14.00,2013-01-06 13:40:00,
2013-01-06 07:45:00,28.4,22.4,30.38,West,274,0.0,0.0,78,0.00,,---,0.00,VWS V14.00,2013-01-06 13:45:00,
2013-01-06 07:50:00,28.4,22.4,30.38,West,274,0.0,0.0,78,0.00,,---,0.00,VWS V14.00,2013-01-06 13:50:00,
2013-01-06 07:55:00,28.3,22.3,30.38,West,274,0.0,0.0,78,0.00,,---,0.00,VWS V14.00,2013-01-06 13:55:00,
2013-01-06 08:00:00,28.4,22.4,30.38,West,274,0.0,0.0,78,0.00,,---,0.00,VWS V14.00,2013-01-06 14:00:00,
2013-01-06 08:05:00,28.5,22.5,30.38,West,274,0.0,0.0,78,0.00,,---,0.00,VWS V14.00,2013-01-06 14:05:00,
2013-01-06 08:10:00,28.6,22.6,30.39,West,275,0.0,0.0,78,0.00,,---,0.00,VWS V14.00,2013-01-06 14:10:00,
2013-01-06 08:15:00,28.8,22.8,30.39,West,274,0.0,0.0,78,0.00,,---,0.00,VWS V14.00,2013-01-06 14:15:00,
2013-01-06 08:20:00,29.1,23.1,30.39,West,274,0.0,0.0,78,0.00,,---,0.00,VWS V14.00,2013-01-06 14:20:00,
2013-01-06 08:25:00,29.4,23.4,30.39,West,274,0.0,0.0,78,0.00,,---,0.00,VWS V14.00,2013-01-06 14:25:00,
2013-01-06 08:30:00,29.9,23.9,30.39,West,275,3.0,4.0,78,0.00,,---,0.00,VWS V14.00,2013-01-06 14:30:00,
2013-01-06 08:35:00,30.3,24.3,30.39,West,276,2.0,3.0,78,0.00,,---,0.00,VWS V14.00,2013-01-06 14:35:00,
2013-01-06 08:40:00,30.7,24.4,30.39,West,278,4.0,6.0,77,0.00,,---,0.00,VWS V14.00,2013-01-06 14:40:00,
2013-01-06 08:45:00,31.2,24.8,30.39,West,278,4.0,5.0,77,0.00,,---,0.00,VWS V14.00,2013-01-06 14:45:00,
2013-01-06 08:50:00,31.5,24.8,30.39,WNW,288,5.0,5.0,76,0.00,,---,0.00,VWS V14.00,2013-01-06 14:50:00,
2013-01-06 08:55:00,31.9,25.2,30.39,WNW,292,2.0,5.0,76,0.00,,---,0.00,VWS V14.00,2013-01-06 14:55:00,
2013-01-06 09:00:00,32.2,25.2,30.40,NW,307,7.0,8.0,75,0.00,,---,0.00,VWS V14.00,2013-01-06 15:00:00,
2013-01-06 09:05:00,32.5,25.1,30.40,NW,317,4.0,6.0,74,0.00,,---,0.00,VWS V14.00,2013-01-06 15:05:00,
2013-01-06 09:10:00,32.8,25.1,30.40,NW,321,4.0,9.0,73,0.00,,---,0.00,VWS V14.00,2013-01-06 15:10:00,
2013-01-06 09:15:00,33.1,25.4,30.41,NW,323,5.0,8.0,73,0.00,,---,0.00,VWS V14.00,2013-01-06 15:15:00,
2013-01-06 09:20:00,33.4,25.4,30.41,NW,325,3.0,4.0,72,0.00,,---,0.00,VWS V14.00,2013-01-06 15:20:00,
2013-01-06 09:25:00,33.7,25.6,30.41,NNW,327,9.0,11.0,72,0.00,,---,0.00,VWS V14.00,2013-01-06 15:25:00,
2013-01-06 09:30:00,34.0,25.6,30.41,NNW,333,7.0,9.0,71,0.00,,---,0.00,VWS V14.00,2013-01-06 15:30:00,
2013-01-06 09:35:00,34.4,25.6,30.41,NNW,332,8.0,10.0,70,0.00,,---,0.00,VWS V14.00,2013-01-06 15:35:00,
2013-01-06 09:40:00,34.4,25.3,30.41,NNW,335,5.0,11.0,69,0.00,,---,0.00,VWS V14.00,2013-01-06 15:40:00,
2013-01-06 09:45:00,34.7,25.6,30.42,NNW,331,7.0,12.0,69,0.00,,---,0.00,VWS V14.00,2013-01-06 15:45:00,
2013-01-06 09:50:00,34.9,25.4,30.42,NNW,328,7.0,11.0,68,0.00,,---,0.00,VWS V14.00,2013-01-06 15:50:00,
2013-01-06 09:55:00,35.2,25.7,30.42,NNW,329,9.0,10.0,68,0.00,,---,0.00,VWS V14.00,2013-01-06 15:55:00,
2013-01-06 10:00:00,35.5,26.0,30.42,NNW,330,6.0,9.0,68,0.00,,---,0.00,VWS V14.00,2013-01-06 16:00:00,
2013-01-06 10:05:00,36.0,25.8,30.42,NNW,336,9.0,12.0,66,0.00,,---,0.00,VWS V14.00,2013-01-06 16:05:00,
2013-01-06 10:10:00,36.4,25.0,30.42,North,355,12.0,12.0,63,0.00,,---,0.00,VWS V14.00,2013-01-06 16:10:00,
2013-01-06 10:15:00,36.8,24.6,30.42,North,355,11.0,13.0,61,0.00,,---,0.00,VWS V14.00,2013-01-06 16:15:00,
2013-01-06 10:20:00,37.1,24.1,30.42,NNW,348,12.0,14.0,59,0.00,,---,0.00,VWS V14.00,2013-01-06 16:20:00,
2013-01-06 10:25:00,37.3,24.3,30.43,North,355,7.0,12.0,59,0.00,,---,0.00,VWS V14.00,2013-01-06 16:25:00,
2013-01-06 10:30:00,37.5,24.5,30.43,NNW,348,13.0,13.0,59,0.00,,---,0.00,VWS V14.00,2013-01-06 16:30:00,
2013-01-06 10:35:00,37.7,24.7,30.43,NNW,340,6.0,10.0,59,0.00,,---,0.00,VWS V14.00,2013-01-06 16:35:00,
2013-01-06 10:40:00,38.0,25.0,30.42,NW,317,6.0,10.0,59,0.00,,---,0.00,VWS V14.00,2013-01-06 16:40:00,
2013-01-06 10:45:00,38.2,24.7,30.42,NW,324,9.0,10.0,58,0.00,,---,0.00,VWS V14.00,2013-01-06 16:45:00,
2013-01-06 10:50:00,38.6,24.7,30.42,NW,325,7.0,8.0,57,0.00,,---,0.00,VWS V14.00,2013-01-06 16:50:00,
2013-01-06 10:55:00,39.0,25.1,30.42,NNW,336,8.0,10.0,57,0.00,,---,0.00,VWS V14.00,2013-01-06 16:55:00,
2013-01-06 11:00:00,39.4,25.0,30.42,NW,324,10.0,12.0,56,0.00,,---,0.00,VWS V14.00,2013-01-06 17:00:00,
2013-01-06 11:05:00,39.7,24.9,30.42,NNW,334,10.0,10.0,55,0.00,,---,0.00,VWS V14.00,2013-01-06 17:05:00,
2013-01-06 11:10:00,40.0,25.1,30.42,NW,323,7.0,12.0,55,0.00,,---,0.00,VWS V14.00,2013-01-06 17:10:00,
2013-01-06 11:15:00,40.3,25.0,30.42,North,349,5.0,9.0,54,0.00,,---,0.00,VWS V14.00,2013-01-06 17:15:00,
2013-01-06 11:20:00,40.7,24.9,30.42,NNW,328,9.0,12.0,53,0.00,,---,0.00,VWS V14.00,2013-01-06 17:20:00,
2013-01-06 11:25:00,41.0,25.2,30.42,NNW,329,5.0,6.0,53,0.00,,---,0.00,VWS V14.00,2013-01-06 17:25:00,
2013-01-06 11:30:00,41.4,26.0,30.41,NNW,338,4.0,7.0,54,0.00,,---,0.00,VWS V14.00,2013-01-06 17:30:00,
2013-01-06 11:35:00,41.8,25.5,30.41,NNW,330,6.0,8.0,52,0.00,,---,0.00,VWS V14.00,2013-01-06 17:35:00,
2013-01-06 11:40:00,42.1,24.8,30.41,NNW,327,5.0,9.0,50,0.00,,---,0.00,VWS V14.00,2013-01-06 17:40:00,
2013-01-06 11:45:00,42.3,25.0,30.41,NNW,327,4.0,7.0,50,0.00,,---,0.00,VWS V14.00,2013-01-06 17:45:00,
2013-01-06 11:50:00,42.4,25.1,30.41,NNW,327,6.0,7.0,50,0.00,,---,0.00,VWS V14.00,2013-01-06 17:50:00,
2013-01-06 11:55:00,42.5,24.7,30.41,NW,322,6.0,6.0,49,0.00,,---,0.00,VWS V14.00,2013-01-06 17:55:00,
2013-01-06 12:00:00,42.8,25.0,30.41,NW,322,2.0,5.0,49,0.00,,---,0.00,VWS V14.00,2013-01-06 18:00:00,
2013-01-06 12:05:00,43.3,25.4,30.41,NW,322,10.0,11.0,49,0.00,,---,0.00,VWS V14.00,2013-01-06 18:05:00,
2013-01-06 12:10:00,43.6,25.2,30.40,NW,315,5.0,6.0,48,0.00,,---,0.00,VWS V14.00,2013-01-06 18:10:00,
2013-01-06 12:15:00,43.8,25.4,30.40,NW,324,4.0,8.0,48,0.00,,---,0.00,VWS V14.00,2013-01-06 18:15:00,
2013-01-06 12:20:00,43.9,24.5,30.40,NW,314,5.0,9.0,46,0.00,,---,0.00,VWS V14.00,2013-01-06 18:20:00,
2013-01-06 12:25:00,44.1,25.2,30.39,North,350,5.0,12.0,47,0.00,,---,0.00,VWS V14.00,2013-01-06 18:25:00,
2013-01-06 12:30:00,44.4,24.9,30.39,NNW,328,4.0,10.0,46,0.00,,---,0.00,VWS V14.00,2013-01-06 18:30:00,
2013-01-06 12:35:00,44.6,24.6,30.39,NW,322,10.0,12.0,45,0.00,,---,0.00,VWS V14.00,2013-01-06 18:35:00,
2013-01-06 12:40:00,44.7,24.1,30.39,NNW,327,7.0,10.0,44,0.00,,---,0.00,VWS V14.00,2013-01-06 18:40:00,
2013-01-06 12:45:00,44.7,24.1,30.38,NNW,329,6.0,9.0,44,0.00,,---,0.00,VWS V14.00,2013-01-06 18:45:00,
2013-01-06 12:50:00,44.9,23.8,30.38,NNW,345,3.0,9.0,43,0.00,,---,0.00,VWS V14.00,2013-01-06 18:50:00,
2013-01-06 12:55:00,45.1,24.0,30.38,North,360,10.0,10.0,43,0.00,,---,0.00,VWS V14.00,2013-01-06 18:55:00,
2013-01-06 13:00:00,45.4,23.7,30.37,North,355,2.0,6.0,42,0.00,,---,0.00,VWS V14.00,2013-01-06 19:00:00,
2013-01-06 13:05:00,45.8,24.6,30.37,NNW,342,3.0,5.0,43,0.00,,---,0.00,VWS V14.00,2013-01-06 19:05:00,
2013-01-06 13:10:00,46.1,24.3,30.36,NNW,346,4.0,9.0,42,0.00,,---,0.00,VWS V14.00,2013-01-06 19:10:00,
2013-01-06 13:15:00,46.3,23.9,30.36,NNW,348,3.0,10.0,41,0.00,,---,0.00,VWS V14.00,2013-01-06 19:15:00,
2013-01-06 13:20:00,46.4,23.4,30.36,NNW,343,4.0,7.0,40,0.00,,---,0.00,VWS V14.00,2013-01-06 19:20:00,
2013-01-06 13:25:00,46.5,24.1,30.36,NNW,342,5.0,10.0,41,0.00,,---,0.00,VWS V14.00,2013-01-06 19:25:00,
2013-01-06 13:30:00,46.6,23.0,30.36,NW,315,4.0,9.0,39,0.00,,---,0.00,VWS V14.00,2013-01-06 19:30:00,
2013-01-06 13:35:00,46.8,23.8,30.36,NW,315,0.0,2.0,40,0.00,,---,0.00,VWS V14.00,2013-01-06 19:35:00,
2013-01-06 13:40:00,47.0,22.7,30.36,NW,315,3.0,9.0,38,0.00,,---,0.00,VWS V14.00,2013-01-06 19:40:00,
2013-01-06 13:45:00,47.3,23.0,30.35,NW,319,1.0,3.0,38,0.00,,---,0.00,VWS V14.00,2013-01-06 19:45:00,
2013-01-06 13:50:00,47.5,23.8,30.35,NW,321,1.0,6.0,39,0.00,,---,0.00,VWS V14.00,2013-01-06 19:50:00,
2013-01-06 13:51:00,47.7,24.0,30.35,NW,321,2.0,4.0,39,0.00,,---,0.00,VWS V14.00,2013-01-06 19:51:00,
2013-01-06 13:55:00,47.9,24.1,30.35,NW,317,5.0,10.0,39,0.00,,---,0.00,VWS V14.00,2013-01-06 19:55:00,
2013-01-06 13:56:00,47.8,24.1,30.35,NW,317,6.0,7.0,39,0.00,,---,0.00,VWS V14.00,2013-01-06 19:56:00,
2013-01-06 14:00:00,47.9,24.1,30.35,NW,321,1.0,10.0,39,0.00,,---,0.00,VWS V14.00,2013-01-06 20:00:00,
2013-01-06 14:01:00,48.0,24.2,30.35,NW,323,4.0,6.0,39,0.00,,---,0.00,VWS V14.00,2013-01-06 20:01:00,
2013-01-06 14:05:00,48.0,23.6,30.35,NW,325,5.0,8.0,38,0.00,,---,0.00,VWS V14.00,2013-01-06 20:05:00,
2013-01-06 14:07:00,48.0,23.6,30.34,NW,325,6.0,7.0,38,0.00,,---,0.00,VWS V14.00,2013-01-06 20:07:00,
2013-01-06 14:10:00,48.1,23.1,30.34,NW,325,5.0,7.0,37,0.00,,---,0.00,VWS V14.00,2013-01-06 20:10:00,
2013-01-06 14:11:00,48.1,23.1,30.34,NW,325,4.0,5.0,37,0.00,,---,0.00,VWS V14.00,2013-01-06 20:11:00,
2013-01-06 14:13:00,48.1,23.7,30.34,NW,324,7.0,7.0,38,0.00,,---,0.00,VWS V14.00,2013-01-06 20:13:00,
2013-01-06 14:15:00,48.1,23.7,30.34,NW,324,2.0,7.0,38,0.00,,---,0.00,VWS V14.00,2013-01-06 20:15:00,
2013-01-06 14:18:00,48.1,23.7,30.34,NW,324,6.0,9.0,38,0.00,,---,0.00,VWS V14.00,2013-01-06 20:18:00,
2013-01-06 14:20:00,48.2,23.8,30.34,NW,325,4.0,9.0,38,0.00,,---,0.00,VWS V14.00,2013-01-06 20:20:00,
2013-01-06 14:23:00,48.3,23.9,30.35,NW,325,2.0,7.0,38,0.00,,---,0.00,VWS V14.00,2013-01-06 20:23:00,
2013-01-06 14:25:00,48.3,23.2,30.34,NW,325,0.0,7.0,37,0.00,,---,0.00,VWS V14.00,2013-01-06 20:25:00,
2013-01-06 14:28:00,48.5,23.4,30.35,NW,324,4.0,6.0,37,0.00,,---,0.00,VWS V14.00,2013-01-06 20:28:00,
2013-01-06 14:30:00,48.5,23.4,30.35,NW,324,2.0,6.0,37,0.00,,---,0.00,VWS V14.00,2013-01-06 20:30:00,
2013-01-06 14:33:00,48.5,23.4,30.35,NW,324,1.0,5.0,37,0.00,,---,0.00,VWS V14.00,2013-01-06 20:33:00,
2013-01-06 14:35:00,48.6,23.5,30.35,NW,324,4.0,5.0,37,0.00,,---,0.00,VWS V14.00,2013-01-06 20:35:00,
2013-01-06 14:38:00,48.8,23.7,30.35,NW,325,2.0,7.0,37,0.00,,---,0.00,VWS V14.00,2013-01-06 20:38:00,
2013-01-06 14:40:00,48.8,23.7,30.35,NW,325,2.0,7.0,37,0.00,,---,0.00,VWS V14.00,2013-01-06 20:40:00,
2013-01-06 14:43:00,49.0,23.9,30.35,NW,325,4.0,5.0,37,0.00,,---,0.00,VWS V14.00,2013-01-06 20:43:00,
2013-01-06 14:45:00,49.0,23.2,30.34,NNW,333,7.0,7.0,36,0.00,,---,0.00,VWS V14.00,2013-01-06 20:45:00,
2013-01-06 14:48:00,48.9,23.8,30.34,NNW,341,1.0,7.0,37,0.00,,---,0.00,VWS V14.00,2013-01-06 20:48:00,
2013-01-06 14:50:00,48.9,23.8,30.34,NNE,19,4.0,7.0,37,0.00,,---,0.00,VWS V14.00,2013-01-06 20:50:00,
2013-01-06 14:53:00,48.9,23.8,30.34,North,10,6.0,9.0,37,0.00,,---,0.00,VWS V14.00,2013-01-06 20:53:00,
2013-01-06 14:55:00,48.8,23.7,30.34,North,10,5.0,9.0,37,0.00,,---,0.00,VWS V14.00,2013-01-06 20:55:00,
2013-01-06 14:58:00,48.7,23.6,30.35,North,10,3.0,6.0,37,0.00,,---,0.00,VWS V14.00,2013-01-06 20:58:00,
2013-01-06 15:00:00,48.8,23.7,30.35,North,10,3.0,3.0,37,0.00,,---,0.00,VWS V14.00,2013-01-06 21:00:00,
2013-01-06 15:05:00,48.8,23.7,30.35,North,10,0.0,0.0,37,0.00,,---,0.00,VWS V14.00,2013-01-06 21:05:00,
2013-01-06 15:10:00,49.0,23.9,30.34,North,10,5.0,5.0,37,0.00,,---,0.00,VWS V14.00,2013-01-06 21:10:00,
2013-01-06 15:15:00,49.1,24.0,30.35,North,5,4.0,4.0,37,0.00,,---,0.00,VWS V14.00,2013-01-06 21:15:00,
2013-01-06 15:20:00,49.2,24.1,30.35,North,5,0.0,0.0,37,0.00,,---,0.00,VWS V14.00,2013-01-06 21:20:00,
2013-01-06 15:25:00,49.4,23.6,30.35,North,5,1.0,3.0,36,0.00,,---,0.00,VWS V14.00,2013-01-06 21:25:00,
2013-01-06 15:30:00,49.6,23.8,30.34,North,5,1.0,4.0,36,0.00,,---,0.00,VWS V14.00,2013-01-06 21:30:00,
2013-01-06 15:35:00,49.7,23.9,30.35,North,5,3.0,5.0,36,0.00,,---,0.00,VWS V14.00,2013-01-06 21:35:00,
2013-01-06 15:40:00,49.4,23.6,30.35,North,5,2.0,4.0,36,0.00,,---,0.00,VWS V14.00,2013-01-06 21:40:00,
2013-01-06 15:45:00,49.3,23.5,30.35,North,5,1.0,3.0,36,0.00,,---,0.00,VWS V14.00,2013-01-06 21:45:00,
2013-01-06 15:50:00,49.3,23.5,30.35,North,5,0.0,0.0,36,0.00,,---,0.00,VWS V14.00,2013-01-06 21:50:00,
2013-01-06 15:55:00,49.4,23.6,30.35,North,5,2.0,5.0,36,0.00,,---,0.00,VWS V14.00,2013-01-06 21:55:00,
2013-01-06 16:00:00,49.2,23.4,30.35,North,5,1.0,4.0,36,0.00,,---,0.00,VWS V14.00,2013-01-06 22:00:00,
2013-01-06 16:05:00,49.2,24.1,30.34,North,5,0.0,1.0,37,0.00,,---,0.00,VWS V14.00,2013-01-06 22:05:00,
2013-01-06 16:10:00,49.2,23.4,30.34,North,5,1.0,2.0,36,0.00,,---,0.00,VWS V14.00,2013-01-06 22:10:00,
2013-01-06 16:15:00,49.3,23.5,30.34,North,5,1.0,2.0,36,0.00,,---,0.00,VWS V14.00,2013-01-06 22:15:00,
2013-01-06 16:20:00,49.2,23.4,30.34,North,5,3.0,3.0,36,0.00,,---,0.00,VWS V14.00,2013-01-06 22:20:00,
2013-01-06 16:25:00,49.1,23.3,30.34,North,5,0.0,0.0,36,0.00,,---,0.00,VWS V14.00,2013-01-06 22:25:00,
2013-01-06 16:30:00,49.1,24.0,30.35,North,5,0.0,0.0,37,0.00,,---,0.00,VWS V14.00,2013-01-06 22:30:00,
2013-01-06 16:35:00,48.8,23.7,30.35,North,5,2.0,3.0,37,0.00,,---,0.00,VWS V14.00,2013-01-06 22:35:00,
2013-01-06 16:40:00,48.3,23.9,30.34,North,5,1.0,1.0,38,0.00,,---,0.00,VWS V14.00,2013-01-06 22:40:00,
2013-01-06 16:45:00,47.9,24.1,30.34,North,5,1.0,2.0,39,0.00,,---,0.00,VWS V14.00,2013-01-06 22:45:00,
2013-01-06 16:50:00,47.5,23.8,30.34,North,5,1.0,1.0,39,0.00,,---,0.00,VWS V14.00,2013-01-06 22:50:00,
2013-01-06 16:55:00,47.1,24.0,30.34,North,5,1.0,2.0,40,0.00,,---,0.00,VWS V14.00,2013-01-06 22:55:00,
2013-01-06 17:00:00,46.9,23.9,30.34,North,5,1.0,2.0,40,0.00,,---,0.00,VWS V14.00,2013-01-06 23:00:00,
2013-01-06 17:05:00,46.8,23.8,30.34,North,5,2.0,2.0,40,0.00,,---,0.00,VWS V14.00,2013-01-06 23:05:00,
2013-01-06 17:10:00,46.5,23.5,30.34,North,5,2.0,2.0,40,0.00,,---,0.00,VWS V14.00,2013-01-06 23:10:00,
2013-01-06 17:15:00,45.8,23.5,30.34,North,5,2.0,3.0,41,0.00,,---,0.00,VWS V14.00,2013-01-06 23:15:00,
2013-01-06 17:20:00,45.3,23.6,30.34,North,5,3.0,3.0,42,0.00,,---,0.00,VWS V14.00,2013-01-06 23:20:00,
2013-01-06 17:25:00,45.0,22.7,30.34,North,5,2.0,3.0,41,0.00,,---,0.00,VWS V14.00,2013-01-06 23:25:00,
2013-01-06 17:30:00,44.9,23.2,30.34,North,5,2.0,3.0,42,0.00,,---,0.00,VWS V14.00,2013-01-06 23:30:00,
2013-01-06 17:35:00,44.6,22.9,30.34,North,5,2.0,3.0,42,0.00,,---,0.00,VWS V14.00,2013-01-06 23:35:00,
2013-01-06 17:40:00,44.3,22.7,30.34,North,5,1.0,2.0,42,0.00,,---,0.00,VWS V14.00,2013-01-06 23:40:00,
2013-01-06 17:45:00,44.0,22.4,30.34,North,5,2.0,2.0,42,0.00,,---,0.00,VWS V14.00,2013-01-06 23:45:00,
2013-01-06 17:50:00,43.8,22.2,30.34,North,5,2.0,3.0,42,0.00,,---,0.00,VWS V14.00,2013-01-06 23:50:00,
2013-01-06 17:55:00,43.5,22.5,30.34,North,5,3.0,3.0,43,0.00,,---,0.00,VWS V14.00,2013-01-06 23:55:00,
2013-01-06 18:00:00,43.4,22.4,30.34,North,5,2.0,2.0,43,0.00,,---,0.00,VWS V14.00,2013-01-07 00:00:00,
2013-01-06 18:05:00,43.1,22.1,30.34,North,5,2.0,3.0,43,0.00,,---,0.00,VWS V14.00,2013-01-07 00:05:00,
2013-01-06 18:10:00,42.8,21.9,30.34,North,5,2.0,3.0,43,0.00,,---,0.00,VWS V14.00,2013-01-07 00:10:00,
2013-01-06 18:15:00,42.5,22.1,30.34,North,5,2.0,3.0,44,0.00,,---,0.00,VWS V14.00,2013-01-07 00:15:00,
2013-01-06 18:20:00,42.2,21.9,30.34,North,5,2.0,2.0,44,0.00,,---,0.00,VWS V14.00,2013-01-07 00:20:00,
2013-01-06 18:25:00,41.7,21.4,30.34,North,5,1.0,2.0,44,0.00,,---,0.00,VWS V14.00,2013-01-07 00:25:00,
2013-01-06 18:30:00,41.5,21.2,30.34,North,5,3.0,3.0,44,0.00,,---,0.00,VWS V14.00,2013-01-07 00:30:00,
2013-01-06 18:35:00,41.3,21.0,30.34,North,5,2.0,3.0,44,0.00,,---,0.00,VWS V14.00,2013-01-07 00:35:00,
2013-01-06 18:40:00,41.2,21.0,30.34,North,5,3.0,4.0,44,0.00,,---,0.00,VWS V14.00,2013-01-07 00:40:00,
2013-01-06 18:45:00,40.9,20.7,30.35,North,5,2.0,3.0,44,0.00,,---,0.00,VWS V14.00,2013-01-07 00:45:00,
2013-01-06 18:50:00,40.7,21.0,30.35,North,5,4.0,4.0,45,0.00,,---,0.00,VWS V14.00,2013-01-07 00:50:00,
2013-01-06 18:55:00,40.5,20.9,30.35,North,5,3.0,3.0,45,0.00,,---,0.00,VWS V14.00,2013-01-07 00:55:00,
2013-01-06 19:00:00,40.4,20.8,30.35,North,5,3.0,3.0,45,0.00,,---,0.00,VWS V14.00,2013-01-07 01:00:00,
2013-01-06 19:05:00,40.3,20.7,30.35,North,5,2.0,3.0,45,0.00,,---,0.00,VWS V14.00,2013-01-07 01:05:00,
2013-01-06 19:10:00,40.2,20.6,30.35,North,5,2.0,3.0,45,0.00,,---,0.00,VWS V14.00,2013-01-07 01:10:00,
2013-01-06 19:15:00,39.9,20.3,30.35,North,5,1.0,1.0,45,0.00,,---,0.00,VWS V14.00,2013-01-07 01:15:00,
2013-01-06 19:20:00,39.5,20.5,30.35,North,5,0.0,1.0,46,0.00,,---,0.00,VWS V14.00,2013-01-07 01:20:00,
2013-01-06 19:25:00,39.0,20.5,30.35,North,5,1.0,1.0,47,0.00,,---,0.00,VWS V14.00,2013-01-07 01:25:00,
2013-01-06 19:30:00,38.6,20.6,30.35,North,5,2.0,3.0,48,0.00,,---,0.00,VWS V14.00,2013-01-07 01:30:00,
2013-01-06 19:35:00,38.5,20.5,30.35,North,5,1.0,2.0,48,0.00,,---,0.00,VWS V14.00,2013-01-07 01:35:00,
2013-01-06 19:40:00,38.4,20.4,30.34,North,5,1.0,2.0,48,0.00,,---,0.00,VWS V14.00,2013-01-07 01:40:00,
2013-01-06 19:45:00,37.9,20.5,30.34,North,5,2.0,3.0,49,0.00,,---,0.00,VWS V14.00,2013-01-07 01:45:00,
2013-01-06 19:50:00,37.1,20.2,30.34,North,5,1.0,3.0,50,0.00,,---,0.00,VWS V14.00,2013-01-07 01:50:00,
2013-01-06 19:55:00,36.7,20.3,30.34,North,5,0.0,1.0,51,0.00,,---,0.00,VWS V14.00,2013-01-07 01:55:00,
2013-01-06 20:00:00,36.3,20.4,30.34,North,5,2.0,3.0,52,0.00,,---,0.00,VWS V14.00,2013-01-07 02:00:00,
2013-01-06 20:05:00,36.0,20.1,30.34,North,5,3.0,3.0,52,0.00,,---,0.00,VWS V14.00,2013-01-07 02:05:00,
2013-01-06 20:10:00,35.9,20.5,30.33,North,5,1.0,3.0,53,0.00,,---,0.00,VWS V14.00,2013-01-07 02:10:00,
2013-01-06 20:15:00,35.8,20.4,30.34,North,5,3.0,3.0,53,0.00,,---,0.00,VWS V14.00,2013-01-07 02:15:00,
2013-01-06 20:20:00,35.7,20.3,30.34,North,9,3.0,4.0,53,0.00,,---,0.00,VWS V14.00,2013-01-07 02:20:00,
2013-01-06 20:25:00,35.7,20.7,30.34,North,5,1.0,2.0,54,0.00,,---,0.00,VWS V14.00,2013-01-07 02:25:00,
2013-01-06 20:30:00,35.4,20.4,30.33,North,5,1.0,3.0,54,0.00,,---,0.00,VWS V14.00,2013-01-07 02:30:00,
2013-01-06 20:35:00,34.4,20.3,30.33,North,5,2.0,3.0,56,0.00,,---,0.00,VWS V14.00,2013-01-07 02:35:00,
2013-01-06 20:40:00,33.5,20.3,30.33,North,9,2.0,3.0,58,0.00,,---,0.00,VWS V14.00,2013-01-07 02:40:00,
2013-01-06 20:45:00,33.1,20.7,30.34,North,9,0.0,1.0,60,0.00,,---,0.00,VWS V14.00,2013-01-07 02:45:00,
2013-01-06 20:50:00,32.9,20.5,30.34,North,9,0.0,0.0,60,0.00,,---,0.00,VWS V14.00,2013-01-07 02:50:00,
2013-01-06 20:55:00,32.7,20.4,30.34,North,9,0.0,0.0,60,0.00,,---,0.00,VWS V14.00,2013-01-07 02:55:00,
2013-01-06 21:00:00,32.5,20.6,30.34,North,9,0.0,0.0,61,0.00,,---,0.00,VWS V14.00,2013-01-07 03:00:00,
2013-01-06 21:05:00,32.4,20.5,30.34,North,9,0.0,0.0,61,0.00,,---,0.00,VWS V14.00,2013-01-07 03:05:00,
2013-01-06 21:10:00,32.3,20.4,30.34,North,9,0.0,0.0,61,0.00,,---,0.00,VWS V14.00,2013-01-07 03:10:00,
2013-01-06 21:15:00,32.2,20.3,30.34,North,9,0.0,0.0,61,0.00,,---,0.00,VWS V14.00,2013-01-07 03:15:00,
2013-01-06 21:20:00,32.1,20.2,30.34,North,9,0.0,0.0,61,0.00,,---,0.00,VWS V14.00,2013-01-07 03:20:00,
2013-01-06 21:25:00,32.2,20.7,30.35,North,9,0.0,1.0,62,0.00,,---,0.00,VWS V14.00,2013-01-07 03:25:00,
2013-01-06 21:30:00,32.2,20.7,30.34,North,9,0.0,0.0,62,0.00,,---,0.00,VWS V14.00,2013-01-07 03:30:00,
2013-01-06 21:35:00,32.2,20.7,30.35,North,9,0.0,0.0,62,0.00,,---,0.00,VWS V14.00,2013-01-07 03:35:00,
2013-01-06 21:40:00,31.9,20.4,30.35,North,9,0.0,0.0,62,0.00,,---,0.00,VWS V14.00,2013-01-07 03:40:00,
2013-01-06 21:45:00,31.4,19.9,30.35,North,9,0.0,0.0,62,0.00,,---,0.00,VWS V14.00,2013-01-07 03:45:00,
2013-01-06 21:50:00,31.0,19.9,30.34,North,9,0.0,0.0,63,0.00,,---,0.00,VWS V14.00,2013-01-07 03:50:00,
2013-01-06 21:55:00,30.4,19.3,30.34,North,9,0.0,0.0,63,0.00,,---,0.00,VWS V14.00,2013-01-07 03:55:00,
2013-01-06 22:00:00,29.7,19.4,30.34,North,9,0.0,0.0,65,0.00,,---,0.00,VWS V14.00,2013-01-07 04:00:00,
2013-01-06 22:05:00,29.4,19.5,30.34,North,9,0.0,0.0,66,0.00,,---,0.00,VWS V14.00,2013-01-07 04:05:00,
2013-01-06 22:10:00,29.2,19.3,30.35,North,9,0.0,0.0,66,0.00,,---,0.00,VWS V14.00,2013-01-07 04:10:00,
2013-01-06 22:15:00,29.2,19.6,30.34,North,9,0.0,0.0,67,0.00,,---,0.00,VWS V14.00,2013-01-07 04:15:00,
2013-01-06 22:20:00,29.3,19.7,30.35,North,9,0.0,0.0,67,0.00,,---,0.00,VWS V14.00,2013-01-07 04:20:00,
2013-01-06 22:25:00,29.6,20.0,30.35,North,9,0.0,0.0,67,0.00,,---,0.00,VWS V14.00,2013-01-07 04:25:00,
2013-01-06 22:30:00,29.7,20.1,30.34,North,9,0.0,0.0,67,0.00,,---,0.00,VWS V14.00,2013-01-07 04:30:00,
2013-01-06 22:35:00,29.8,19.8,30.35,North,9,0.0,2.0,66,0.00,,---,0.00,VWS V14.00,2013-01-07 04:35:00,
2013-01-06 22:40:00,29.7,19.8,30.35,North,9,0.0,0.0,66,0.00,,---,0.00,VWS V14.00,2013-01-07 04:40:00,
2013-01-06 22:45:00,29.5,19.6,30.35,North,9,0.0,0.0,66,0.00,,---,0.00,VWS V14.00,2013-01-07 04:45:00,
2013-01-06 22:50:00,29.2,19.6,30.35,North,9,0.0,0.0,67,0.00,,---,0.00,VWS V14.00,2013-01-07 04:50:00,
2013-01-06 22:55:00,29.0,19.4,30.35,North,9,0.0,0.0,67,0.00,,---,0.00,VWS V14.00,2013-01-07 04:55:00,
2013-01-06 23:00:00,28.8,19.2,30.35,North,9,0.0,0.0,67,0.00,,---,0.00,VWS V14.00,2013-01-07 05:00:00,
2013-01-06 23:01:00,28.8,19.6,30.35,North,9,0.0,0.0,68,0.00,,---,0.00,VWS V14.00,2013-01-07 05:01:00,
2013-01-06 23:05:00,28.6,19.4,30.35,North,9,0.0,0.0,68,0.00,,---,0.00,VWS V14.00,2013-01-07 05:05:00,
2013-01-06 23:06:00,28.5,19.6,30.35,North,9,0.0,0.0,69,0.00,,---,0.00,VWS V14.00,2013-01-07 05:06:00,
2013-01-06 23:10:00,28.4,19.5,30.35,North,9,0.0,0.0,69,0.00,,---,0.00,VWS V14.00,2013-01-07 05:10:00,
2013-01-06 23:11:00,28.3,19.5,30.35,North,5,3.0,3.0,69,0.00,,---,0.00,VWS V14.00,2013-01-07 05:11:00,
2013-01-06 23:15:00,28.1,19.3,30.35,North,5,2.0,3.0,69,0.00,,---,0.00,VWS V14.00,2013-01-07 05:15:00,
2013-01-06 23:16:00,27.9,19.1,30.35,North,5,1.0,2.0,69,0.00,,---,0.00,VWS V14.00,2013-01-07 05:16:00,
2013-01-06 23:20:00,27.6,18.8,30.35,North,5,0.0,2.0,69,0.00,,---,0.00,VWS V14.00,2013-01-07 05:20:00,
2013-01-06 23:21:00,27.5,19.0,30.35,North,5,0.0,0.0,70,0.00,,---,0.00,VWS V14.00,2013-01-07 05:21:00,
2013-01-06 23:25:00,27.4,18.9,30.35,North,5,1.0,1.0,70,0.00,,---,0.00,VWS V14.00,2013-01-07 05:25:00,
2013-01-06 23:26:00,27.3,19.1,30.35,North,5,0.0,2.0,71,0.00,,---,0.00,VWS V14.00,2013-01-07 05:26:00,
2013-01-06 23:30:00,27.3,19.1,30.35,North,5,2.0,4.0,71,0.00,,---,0.00,VWS V14.00,2013-01-07 05:30:00,
2013-01-06 23:31:00,27.2,19.1,30.35,North,5,1.0,4.0,71,0.00,,---,0.00,VWS V14.00,2013-01-07 05:31:00,
2013-01-06 23:35:00,27.2,19.1,30.35,North,5,3.0,4.0,71,0.00,,---,0.00,VWS V14.00,2013-01-07 05:35:00,
2013-01-06 23:36:00,27.2,19.1,30.35,North,5,1.0,3.0,71,0.00,,---,0.00,VWS V14.00,2013-01-07 05:36:00,
2013-01-06 23:40:00,27.1,19.0,30.35,North,5,4.0,4.0,71,0.00,,---,0.00,VWS V14.00,2013-01-07 05:40:00,
2013-01-06 23:41:00,26.9,18.8,30.35,North,5,3.0,4.0,71,0.00,,---,0.00,VWS V14.00,2013-01-07 05:41:00,
2013-01-06 23:45:00,26.9,19.1,30.35,North,5,1.0,4.0,72,0.00,,---,0.00,VWS V14.00,2013-01-07 05:45:00,
2013-01-06 23:46:00,26.8,19.0,30.35,North,5,0.0,3.0,72,0.00,,---,0.00,VWS V14.00,2013-01-07 05:46:00,
2013-01-06 23:50:00,26.9,19.4,30.35,North,5,0.0,3.0,73,0.00,,---,0.00,VWS V14.00,2013-01-07 05:50:00,
2013-01-06 23:51:00,27.0,19.5,30.35,North,5,0.0,1.0,73,0.00,,---,0.00,VWS V14.00,2013-01-07 05:51:00,
2013-01-06 23:55:00,27.1,19.6,30.35,North,5,0.0,1.0,73,0.00,,---,0.00,VWS V14.00,2013-01-07 05:55:00,
2013-01-06 23:56:00,27.2,19.7,30.35,North,5,0.0,1.0,73,0.00,,---,0.00,VWS V14.00,2013-01-07 05:56:00,